createdAt,value
2024-04-25T04:01:11.862Z,4.60
2024-04-25T04:03:41.996Z,4.60
2024-04-25T04:06:12.146Z,4.70
2024-04-25T04:08:42.050Z,4.70
2024-04-25T04:11:11.684Z,4.80
2024-04-25T04:13:41.316Z,4.70
2024-04-25T04:16:13.477Z,4.80
2024-04-25T04:18:42.995Z,4.80
2024-04-25T04:21:14.304Z,4.70
2024-04-25T04:23:44.522Z,4.80
2024-04-25T04:26:14.201Z,4.80
2024-04-25T04:28:44.010Z,4.80
2024-04-25T04:31:16.197Z,4.80
2024-04-25T04:33:45.933Z,4.80
2024-04-25T04:36:15.665Z,4.80
2024-04-25T13:44:22.882Z,9.80
2024-04-25T13:46:54.636Z,12.60
2024-04-25T13:49:28.094Z,14.20
2024-04-25T13:51:58.037Z,16.00
2024-04-25T13:54:27.447Z,17.10
2024-04-25T13:56:56.983Z,18.10
2024-04-25T13:59:29.446Z,17.20
2024-04-25T14:01:59.111Z,17.20
2024-04-25T14:04:28.662Z,18.20
2024-04-25T14:06:58.252Z,20.00
2024-04-25T14:09:27.747Z,20.50
2024-04-25T14:11:57.577Z,20.10
2024-04-25T14:14:29.738Z,17.80
2024-04-25T14:16:59.618Z,17.70
2024-04-25T14:19:29.614Z,17.50
2024-04-25T14:21:59.236Z,17.20
2024-04-25T14:24:31.781Z,17.20
2024-04-25T14:27:17.146Z,17.30
2024-04-25T14:29:49.424Z,17.90
2024-04-25T14:32:19.347Z,19.20
2024-04-25T14:34:49.367Z,20.00
2024-04-25T14:37:19.918Z,20.30
2024-04-25T14:39:49.572Z,21.10
2024-04-25T14:42:20.310Z,20.40
2024-04-25T14:44:52.793Z,19.20
2024-04-25T14:47:22.454Z,17.30
2024-04-25T14:49:52.398Z,16.70
2024-04-25T14:52:22.296Z,16.40
2024-04-25T14:54:52.230Z,16.10
2024-04-25T14:57:21.836Z,16.90
2024-04-25T14:59:54.432Z,16.00
2024-04-25T15:02:24.123Z,14.50
2024-04-25T15:04:56.035Z,14.10
2024-04-25T15:07:25.940Z,13.70
2024-04-25T15:09:56.478Z,13.80
2024-04-25T15:12:26.108Z,13.70
2024-04-25T15:15:08.083Z,13.50
2024-04-25T15:17:42.911Z,13.60
2024-04-25T18:05:19.912Z,8.60
2024-04-25T18:07:49.535Z,8.50
2024-04-25T18:10:19.582Z,8.60
2024-04-25T18:12:49.382Z,8.60
2024-04-25T18:15:19.013Z,8.60
2024-04-25T18:17:48.711Z,8.70
2024-04-25T18:20:21.862Z,8.70
2024-04-25T18:22:51.452Z,8.60
2024-04-25T18:25:21.009Z,8.60
2024-04-25T18:27:50.657Z,8.60
2024-04-25T18:30:20.154Z,8.70
2024-04-25T18:32:50.353Z,8.60
2024-04-25T18:35:23.028Z,8.40
2024-04-25T18:37:52.899Z,8.30
2024-04-25T18:40:22.953Z,8.30
2024-04-25T18:42:52.528Z,8.40
2024-04-25T18:45:22.365Z,8.30
2024-04-25T18:47:52.083Z,8.20
2024-04-25T18:50:24.487Z,8.30
2024-04-25T18:52:54.040Z,8.20
